IVAO ES Tour IFR-A 2013 Etapa 28

IVAO ES Tour IFR-A 2013 Etapa 28

Gran Canaria ( GCLP ) – Madrid ( LEMD )

Datos generales del vuelo
Fecha 18-12-2013 Avión  B737-800 winglets
Ruta KORAL UG5 ESS UN871 VJF UN10 HIJ UZ230 SOTUK Nivel de vuelo FL380
Origen GCLP Destino LEMD
Velocidad M0.793 Distancia 1000Nm
Distancia real 951Nm ETE 02:30
ETA 19:10Z FOB 03:30
Hora salida 16:40Z Hora llegada 19:10Z
Pax 152 TOW 68240Kg
MTOW  78471Kg Fuel 10310Kg
Fuel utilizado 6874Kg ZFW 57929Kg
Peso carga 6018Kg Peso pasaje 10498Kg
V1 131Knots Vr 141Knots
V2 150Knots Vref 144Knots
 Velocidad vertical toma
118,5 ft/m  

 

Datos GCLP
Metar: GCLP 181600Z 02015KT 9999 FEW025 21/13 Q1028 NOSIG
Pista Activa: 03R
Salida: KORAL4A

Datos LEMD
Metar: LEMD 181830Z 17005KT 140V210 5000 BR FEW010 SCT050 BKN075 08/07 Q1024 NOSIG
Pista Activa: 32l
Llegada: SOTUK2C
App: ILS Z 32L

IVAO ES Tour IFR-A 2013 Etapa 27

IVAO ES Tour IFR-A 2013 Etapa 27

Badajoz ( LEBZ ) – Gran Canaria ( GCLP )

Datos generales del vuelo
Fecha 17-12-2013 Avión  B737-800 winglets
Ruta CLANA UN857 TERTO Nivel de vuelo FL370
Origen LEBZ Destino GCLP
Velocidad M0.797 Distancia 820Nm
Distancia real 784Nm ETE 02:00
ETA 21:00Z FOB 03:30
Hora salida 18:50Z Hora llegada 21:10Z
Pax  146 TOW 69083Kg
MTOW  78471Kg Fuel 9396Kg
Fuel utilizado 6101Kg ZFW 59686Kg
Peso carga 7382Kg Peso pasaje 10891Kg
V1 132Knots Vr 141Knots
V2 149Knots Vref 147Knots
 Velocidad vertical toma
50,0 ft/m  

 

Datos LEBZ
Metar: LEBZ 171800Z 15001KT 9999 FEW035 13/09 Q1026
Pista Activa: 31
Salida: VFR

Datos GCLP
Metar: GCLP 172030Z 02014KT 9999 FEW023 BKN032 19/13 Q1028 NOSIG
Pista Activa: 03
Llegada: TERTO4Z
App: ILS Z 03L transición LALTO

 

CanaryFly opera Gran Canaria – La Gomera

Logo CanaryFly

Logo CanaryFlyDesde el pasado viernes, 25 de mayo, la compañía CanaryFly opera la ruta Gran Canaria ( LPA ) – La Gomera ( GMZ ). La ruta la opera con un Fairchild SA-227BC Metro III de 19 plazas, el EC-IRS, y un ATR 42 de 46 plazas, el EC-LMX.

En un principio la compañía realizará dos vuelos diarios de ida y vuelta los lunes, miércoles y viernes y un vuelo de ida y vuelta los domingos. La duración del vuelo es de unos 40 minutos.

El precio por trayecto para los residentes canarios es de 80€, 40€ por trayecto.

CanaryFly ATR 42 EC-LMX

CanaryFly SW4 MetroLiner EC-IRS

 

Algunos videos

Como primera entrada os dejo algunos videos bastantes buenos tomados enlos aeropuertos de Gran Canaria – Gando (GCLP/LPA) y La Coruña – Alvedro (LECO/LCG).